createdAt,value
2023-03-01T00:01:48.827Z,102970.50
2023-03-01T00:04:17.235Z,102965.41
2023-03-01T00:06:48.859Z,102964.34
2023-03-01T00:09:18.197Z,102968.34
2023-03-01T00:11:47.214Z,102973.59
2023-03-01T00:14:18.359Z,102975.75
2023-03-01T00:16:47.505Z,102974.41
2023-03-01T00:19:18.931Z,102969.16
2023-03-01T00:21:47.471Z,102974.69
2023-03-01T00:24:16.490Z,102966.16
2023-03-01T00:26:45.093Z,102965.69
2023-03-01T00:29:13.499Z,102955.78
2023-03-01T00:31:41.959Z,102961.38
2023-03-01T00:34:10.597Z,102960.00
2023-03-01T00:36:39.396Z,102958.88
2023-03-01T00:39:12.993Z,102964.34
2023-03-01T00:41:42.292Z,102965.59
2023-03-01T00:44:11.328Z,102964.03
2023-03-01T00:46:40.006Z,102968.13
2023-03-01T00:49:08.885Z,102956.22
2023-03-01T00:51:37.330Z,102951.47
2023-03-01T00:54:05.817Z,102953.28
2023-03-01T00:56:34.560Z,102950.69
2023-03-01T00:59:03.206Z,102946.50
2023-03-01T01:01:32.477Z,102944.91
2023-03-01T01:04:07.121Z,102947.63
2023-03-01T01:06:44.788Z,102934.75
2023-03-01T01:09:18.698Z,102941.56
2023-03-01T01:11:49.229Z,102923.31
2023-03-01T01:14:18.825Z,102925.25
2023-03-01T01:16:47.315Z,102928.41
2023-03-01T01:19:16.384Z,102932.53
2023-03-01T01:21:45.770Z,102934.09
2023-03-01T01:24:14.406Z,102925.75
2023-03-01T01:26:43.347Z,102924.28
2023-03-01T01:29:12.791Z,102913.03
2023-03-01T01:31:42.737Z,102904.22
2023-03-01T01:34:19.077Z,102902.72
2023-03-01T01:36:54.941Z,102899.25
2023-03-01T01:39:23.926Z,102886.84
2023-03-01T01:41:52.349Z,102889.72
2023-03-01T01:44:24.512Z,102888.91
2023-03-01T01:47:02.244Z,102889.44
2023-03-01T01:49:43.537Z,102888.97
2023-03-01T01:52:22.553Z,102887.13
2023-03-01T01:55:06.109Z,102886.59
2023-03-01T01:57:50.394Z,102882.75
2023-03-01T02:00:24.704Z,102877.78
2023-03-01T02:02:58.806Z,102878.94
2023-03-01T02:05:37.385Z,102876.44
2023-03-01T02:08:06.964Z,102872.47
2023-03-01T02:10:36.769Z,102866.31
2023-03-01T02:13:05.551Z,102869.72
2023-03-01T02:15:35.529Z,102869.72
2023-03-01T02:18:05.241Z,102856.97
2023-03-01T02:20:51.017Z,102854.44
2023-03-01T02:23:19.625Z,102866.88
2023-03-01T02:25:57.934Z,102857.84
2023-03-01T02:28:46.769Z,102853.31
2023-03-01T02:31:39.457Z,102855.13
2023-03-01T02:34:11.373Z,102850.91
2023-03-01T02:37:13.909Z,102843.88
2023-03-01T02:39:49.112Z,102856.16
2023-03-01T02:42:25.560Z,102852.00
2023-03-01T02:44:55.535Z,102849.31
2023-03-01T02:47:24.285Z,102847.00
2023-03-01T02:49:52.950Z,102850.66
2023-03-01T02:52:42.647Z,102853.44
2023-03-01T02:55:17.428Z,102854.59
2023-03-01T02:57:51.686Z,102857.31
2023-03-01T03:00:26.260Z,102848.38
2023-03-01T03:02:57.850Z,102835.97
2023-03-01T03:05:29.138Z,102853.63
2023-03-01T03:07:59.778Z,102849.56
2023-03-01T03:10:30.888Z,102850.78
2023-03-01T03:13:02.381Z,102851.84
2023-03-01T03:15:30.777Z,102852.06
2023-03-01T03:17:59.938Z,102843.94
2023-03-01T03:20:29.689Z,102846.50
2023-03-01T03:22:59.537Z,102844.19
2023-03-01T03:25:30.225Z,102845.47
2023-03-01T03:27:59.243Z,102843.06
2023-03-01T03:30:30.998Z,102839.78
2023-03-01T03:33:00.482Z,102841.84
2023-03-01T03:35:31.577Z,102837.91
2023-03-01T03:38:04.614Z,102827.63
2023-03-01T03:40:46.688Z,102837.50
2023-03-01T03:43:24.499Z,102839.63
2023-03-01T03:45:53.227Z,102833.31
2023-03-01T03:48:22.822Z,102835.78
2023-03-01T03:50:56.297Z,102831.81
2023-03-01T03:53:27.126Z,102835.13
2023-03-01T03:55:55.898Z,102834.59
2023-03-01T03:58:26.275Z,102839.31
2023-03-01T04:00:57.865Z,102835.13
2023-03-01T04:03:28.194Z,102828.63
2023-03-01T04:05:59.660Z,102824.13
2023-03-01T04:08:28.614Z,102818.44
2023-03-01T04:11:22.665Z,102826.13
2023-03-01T04:13:52.787Z,102817.97
2023-03-01T04:16:21.499Z,102814.75
2023-03-01T04:18:50.361Z,102817.69
2023-03-01T04:21:21.171Z,102818.50
2023-03-01T04:23:53.344Z,102813.66
2023-03-01T04:26:21.733Z,102812.44
2023-03-01T04:28:51.361Z,102808.88
2023-03-01T04:31:22.333Z,102806.66
2023-03-01T04:33:53.934Z,102807.53
2023-03-01T04:36:26.087Z,102808.28
2023-03-01T04:38:54.904Z,102803.44
2023-03-01T04:41:25.815Z,102794.44
2023-03-01T04:43:54.196Z,102796.63
2023-03-01T04:46:23.077Z,102783.97
2023-03-01T04:48:51.710Z,102780.56
2023-03-01T04:51:20.193Z,102778.59
2023-03-01T04:53:48.662Z,102775.81
2023-03-01T04:56:19.013Z,102775.63
2023-03-01T04:58:47.843Z,102774.53
2023-03-01T05:01:19.757Z,102772.53
2023-03-01T05:03:51.548Z,102784.75
2023-03-01T05:06:21.184Z,102782.94
2023-03-01T05:08:50.215Z,102786.03
2023-03-01T05:11:18.669Z,102787.00
2023-03-01T05:13:47.163Z,102785.75
2023-03-01T05:16:15.787Z,102786.56
2023-03-01T05:18:44.583Z,102780.94
2023-03-01T05:21:17.098Z,102780.00
2023-03-01T05:23:47.742Z,102769.31
2023-03-01T05:26:33.884Z,102774.44
2023-03-01T05:29:02.374Z,102761.44
2023-03-01T05:31:31.870Z,102761.66
2023-03-01T05:34:00.564Z,102759.19
2023-03-01T05:36:29.428Z,102750.59
2023-03-01T05:38:58.098Z,102743.81
2023-03-01T05:41:26.533Z,102735.56
2023-03-01T05:43:55.036Z,102740.06
2023-03-01T05:46:25.344Z,102742.19
2023-03-01T05:48:53.839Z,102735.94
2023-03-01T05:51:23.171Z,102741.44
2023-03-01T05:53:51.741Z,102751.06
2023-03-01T05:56:20.165Z,102743.25
2023-03-01T05:58:51.375Z,102741.75
2023-03-01T06:01:19.777Z,102748.19
2023-03-01T06:03:48.324Z,102741.28
2023-03-01T06:06:16.826Z,102746.38
2023-03-01T06:08:45.357Z,102737.16
2023-03-01T06:11:13.867Z,102747.38
2023-03-01T06:13:44.128Z,102738.63
2023-03-01T06:16:13.443Z,102740.59
2023-03-01T06:18:42.253Z,102743.31
2023-03-01T06:21:10.680Z,102739.28
2023-03-01T06:23:39.100Z,102738.16
2023-03-01T06:26:09.390Z,102743.31
2023-03-01T06:28:37.902Z,102749.31
2023-03-01T06:31:09.679Z,102748.91
2023-03-01T06:33:38.327Z,102748.50
2023-03-01T06:36:07.520Z,102745.84
2023-03-01T06:38:35.970Z,102752.38
2023-03-01T06:41:04.632Z,102748.69
2023-03-01T06:43:33.272Z,102755.53
2023-03-01T06:46:05.807Z,102745.19
2023-03-01T06:48:34.851Z,102746.38
2023-03-01T06:51:03.416Z,102749.44
2023-03-01T06:53:31.972Z,102749.19
2023-03-01T06:56:03.358Z,102743.28
2023-03-01T06:58:31.979Z,102737.19
2023-03-01T07:01:00.636Z,102739.44
2023-03-01T07:03:29.084Z,102729.19
2023-03-01T07:05:57.510Z,102733.00
2023-03-01T07:08:25.937Z,102724.78
2023-03-01T07:10:58.778Z,102728.34
2023-03-01T07:13:27.184Z,102733.63
2023-03-01T07:15:55.829Z,102740.88
2023-03-01T07:18:24.369Z,102746.19
2023-03-01T07:20:52.866Z,102757.56
2023-03-01T07:23:21.378Z,102761.66
2023-03-01T07:25:54.718Z,102758.50
2023-03-01T07:28:26.320Z,102758.38
2023-03-01T07:30:55.379Z,102756.56
2023-03-01T07:33:23.898Z,102757.13
2023-03-01T07:35:58.683Z,102762.50
2023-03-01T07:38:27.889Z,102759.91
2023-03-01T07:41:01.589Z,102755.06
2023-03-01T07:43:31.141Z,102761.50
2023-03-01T07:46:01.411Z,102757.97
2023-03-01T07:48:31.724Z,102756.75
2023-03-01T07:51:01.606Z,102768.31
2023-03-01T07:53:32.179Z,102768.31
2023-03-01T07:56:13.976Z,102750.25
2023-03-01T07:58:43.498Z,102758.94
2023-03-01T08:01:16.040Z,102756.38
2023-03-01T08:03:44.864Z,102763.88
2023-03-01T08:06:15.725Z,102755.75
2023-03-01T08:08:44.543Z,102759.19
2023-03-01T08:11:15.367Z,102761.84
2023-03-01T08:13:44.400Z,102756.69
2023-03-01T08:16:15.557Z,102752.59
2023-03-01T08:18:44.773Z,102749.78
2023-03-01T08:21:16.082Z,102750.31
2023-03-01T08:23:45.521Z,102753.25
2023-03-01T08:26:20.843Z,102748.66
2023-03-01T08:28:50.162Z,102760.63
2023-03-01T08:31:21.677Z,102761.72
2023-03-01T08:33:56.366Z,102753.63
2023-03-01T08:36:27.403Z,102755.50
2023-03-01T08:38:56.197Z,102744.16
2023-03-01T08:41:24.931Z,102743.53
2023-03-01T08:43:59.339Z,102742.66
2023-03-01T08:46:33.859Z,102734.06
2023-03-01T08:49:12.124Z,102731.84
2023-03-01T08:51:41.228Z,102733.09
2023-03-01T08:54:17.965Z,102735.81
2023-03-01T08:56:46.951Z,102730.84
2023-03-01T08:59:16.984Z,102738.13
2023-03-01T09:01:45.591Z,102737.00
2023-03-01T09:04:15.691Z,102735.69
2023-03-01T09:06:44.234Z,102730.94
2023-03-01T09:09:17.485Z,102725.75
2023-03-01T09:11:47.768Z,102727.19
2023-03-01T09:14:16.673Z,102725.00
2023-03-01T09:16:46.074Z,102724.34
2023-03-01T09:19:15.123Z,102724.22
2023-03-01T09:21:53.115Z,102724.81
2023-03-01T09:24:23.253Z,102716.91
2023-03-01T09:26:55.651Z,102726.78
2023-03-01T09:29:24.577Z,102714.75
2023-03-01T09:31:56.082Z,102715.16
2023-03-01T09:34:24.824Z,102706.78
2023-03-01T09:36:53.369Z,102710.59
2023-03-01T09:39:21.785Z,102713.59
2023-03-01T09:42:05.365Z,102714.38
2023-03-01T09:44:44.827Z,102711.94
2023-03-01T09:47:22.801Z,102706.38
2023-03-01T09:50:04.500Z,102706.84
2023-03-01T09:52:54.832Z,102699.84
2023-03-01T09:55:56.693Z,102691.84
2023-03-01T09:59:02.554Z,102686.84
2023-03-01T10:01:46.554Z,102680.94
2023-03-01T10:04:29.740Z,102687.97
2023-03-01T10:07:10.175Z,102690.84
2023-03-01T10:09:41.900Z,102677.31
2023-03-01T10:12:14.801Z,102680.97
2023-03-01T10:15:17.441Z,102669.00
2023-03-01T10:17:53.808Z,102653.72
2023-03-01T10:20:22.302Z,102663.03
2023-03-01T10:22:53.402Z,102653.66
2023-03-01T10:25:25.597Z,102648.78
2023-03-01T10:27:55.020Z,102650.03
2023-03-01T10:30:30.560Z,102644.88
2023-03-01T10:32:59.601Z,102641.50
2023-03-01T10:35:30.244Z,102636.41
2023-03-01T10:38:09.737Z,102635.63
2023-03-01T10:40:55.911Z,102644.25
2023-03-01T10:43:26.487Z,102644.56
2023-03-01T10:45:54.950Z,102638.59
2023-03-01T10:48:27.214Z,102647.06
2023-03-01T10:50:58.335Z,102644.69
2023-03-01T10:53:33.066Z,102637.00
2023-03-01T10:56:08.073Z,102646.78
2023-03-01T10:58:38.647Z,102642.09
2023-03-01T11:01:27.519Z,102647.19
2023-03-01T11:04:08.307Z,102639.38
2023-03-01T11:06:38.821Z,102633.53
2023-03-01T11:09:18.936Z,102629.28
2023-03-01T11:11:52.594Z,102634.88
2023-03-01T11:14:28.462Z,102644.81
2023-03-01T11:17:16.378Z,102643.19
2023-03-01T11:20:02.985Z,102641.72
2023-03-01T11:22:33.841Z,102644.81
2023-03-01T11:25:10.377Z,102638.97
2023-03-01T11:27:44.043Z,102634.88
2023-03-01T11:30:30.202Z,102632.63
2023-03-01T11:33:22.615Z,102641.66
2023-03-01T11:36:17.134Z,102630.97
2023-03-01T11:38:45.676Z,102641.59
2023-03-01T11:41:18.896Z,102632.84
2023-03-01T11:43:59.732Z,102621.50
2023-03-01T11:46:34.273Z,102620.06
2023-03-01T11:49:44.764Z,102614.34
2023-03-01T11:52:55.868Z,102617.47
2023-03-01T11:56:05.865Z,102613.75
2023-03-01T11:59:00.669Z,102609.66
2023-03-01T12:01:44.735Z,102609.16
2023-03-01T12:04:24.762Z,102600.34
2023-03-01T12:06:57.652Z,102606.84
2023-03-01T12:10:07.978Z,102601.97
2023-03-01T12:12:45.556Z,102600.81
2023-03-01T12:15:20.228Z,102605.47
2023-03-01T12:18:16.606Z,102592.47
2023-03-01T12:20:56.220Z,102591.66
2023-03-01T12:23:51.072Z,102579.59
2023-03-01T12:26:28.358Z,102584.53
2023-03-01T12:29:15.009Z,102589.84
2023-03-01T12:32:23.361Z,102586.03
2023-03-01T12:35:13.563Z,102583.47
2023-03-01T12:37:54.081Z,102577.47
2023-03-01T12:40:31.489Z,102581.53
2023-03-01T12:43:31.709Z,102573.31
2023-03-01T12:46:32.791Z,102573.00
2023-03-01T12:49:11.813Z,102561.47
2023-03-01T12:51:41.795Z,102559.50
2023-03-01T12:54:20.562Z,102561.72
2023-03-01T12:56:53.432Z,102554.38
2023-03-01T12:59:30.975Z,102536.88
2023-03-01T13:02:11.355Z,102539.97
2023-03-01T13:05:04.881Z,102539.16
2023-03-01T13:08:01.387Z,102533.78
2023-03-01T13:10:50.588Z,102535.94
2023-03-01T13:13:25.169Z,102526.47
2023-03-01T13:15:54.549Z,102529.06
2023-03-01T13:18:28.782Z,102522.31
2023-03-01T13:21:00.305Z,102512.09
2023-03-01T13:23:32.873Z,102503.03
2023-03-01T13:26:02.710Z,102513.00
2023-03-01T13:28:37.036Z,102510.50
2023-03-01T13:31:07.674Z,102513.53
2023-03-01T13:33:52.030Z,102505.28
2023-03-01T13:36:43.605Z,102494.38
2023-03-01T13:39:24.338Z,102488.41
2023-03-01T13:41:55.430Z,102490.56
2023-03-01T13:44:24.596Z,102493.84
2023-03-01T13:46:57.117Z,102476.03
2023-03-01T13:49:45.938Z,102469.47
2023-03-01T13:52:29.266Z,102466.25
2023-03-01T13:54:59.005Z,102458.59
2023-03-01T13:57:34.932Z,102458.94
2023-03-01T14:00:05.773Z,102455.19
2023-03-01T14:02:35.258Z,102447.97
2023-03-01T14:05:04.023Z,102449.38
2023-03-01T14:07:32.377Z,102451.47
2023-03-01T14:10:05.975Z,102448.69
2023-03-01T14:12:52.268Z,102443.22
2023-03-01T14:15:27.630Z,102452.06
2023-03-01T14:18:02.237Z,102443.72
2023-03-01T14:20:38.439Z,102438.75
2023-03-01T14:23:14.541Z,102430.41
2023-03-01T14:25:57.534Z,102425.59
2023-03-01T14:28:29.247Z,102430.63
2023-03-01T14:30:59.823Z,102426.81
2023-03-01T14:33:34.425Z,102424.78
2023-03-01T14:36:14.064Z,102438.69
2023-03-01T14:38:47.036Z,102433.81
2023-03-01T14:41:19.562Z,102424.34
2023-03-01T14:43:54.105Z,102413.38
2023-03-01T14:46:41.453Z,102413.59
2023-03-01T14:49:18.263Z,102404.25
2023-03-01T14:51:54.239Z,102406.03
2023-03-01T14:54:32.777Z,102397.38
2023-03-01T14:57:02.778Z,102392.63
2023-03-01T14:59:34.471Z,102397.63
2023-03-01T15:02:03.609Z,102389.34
2023-03-01T15:04:33.114Z,102388.25
2023-03-01T15:07:05.917Z,102388.03
2023-03-01T15:09:37.458Z,102384.00
2023-03-01T15:12:28.120Z,102385.63
2023-03-01T15:15:04.373Z,102385.81
2023-03-01T15:17:36.807Z,102378.03
2023-03-01T15:20:17.646Z,102377.31
2023-03-01T15:22:49.646Z,102379.75
2023-03-01T15:25:20.465Z,102383.41
2023-03-01T15:27:51.471Z,102382.78
2023-03-01T15:30:22.235Z,102384.59
2023-03-01T15:33:19.946Z,102380.50
2023-03-01T15:35:54.661Z,102381.94
2023-03-01T15:38:32.966Z,102384.78
2023-03-01T15:41:04.559Z,102387.13
2023-03-01T15:43:46.789Z,102366.56
2023-03-01T15:46:28.419Z,102377.69
2023-03-01T15:49:03.338Z,102373.03
2023-03-01T15:51:37.023Z,102391.13
2023-03-01T15:54:14.477Z,102380.63
2023-03-01T15:56:42.938Z,102378.34
2023-03-01T15:59:14.899Z,102381.38
2023-03-01T16:01:43.478Z,102369.91
2023-03-01T16:04:21.682Z,102361.47
2023-03-01T16:06:56.062Z,102353.69
2023-03-01T16:09:26.387Z,102358.97
2023-03-01T16:11:55.206Z,102356.09
2023-03-01T16:14:24.016Z,102359.41
2023-03-01T16:16:52.449Z,102363.53
2023-03-01T16:19:21.077Z,102349.13
2023-03-01T16:21:50.869Z,102352.84
2023-03-01T16:24:19.323Z,102354.06
2023-03-01T16:26:47.763Z,102346.88
2023-03-01T16:29:17.194Z,102345.41
2023-03-01T16:31:45.889Z,102333.19
2023-03-01T16:34:14.582Z,102336.66
2023-03-01T16:36:43.848Z,102339.22
2023-03-01T16:39:12.330Z,102333.81
2023-03-01T16:41:40.838Z,102342.16
2023-03-01T16:44:09.358Z,102338.31
2023-03-01T16:46:37.900Z,102338.78
2023-03-01T16:49:06.281Z,102339.78
2023-03-01T16:51:36.510Z,102337.78
2023-03-01T16:54:06.367Z,102340.78
2023-03-01T16:56:38.433Z,102343.03
2023-03-01T16:59:07.491Z,102342.22
2023-03-01T17:01:40.442Z,102348.75
2023-03-01T17:04:12.632Z,102345.56
2023-03-01T17:06:41.196Z,102342.63
2023-03-01T17:09:10.356Z,102340.31
2023-03-01T17:11:38.982Z,102339.00
2023-03-01T17:14:07.905Z,102339.72
2023-03-01T17:16:36.815Z,102339.00
2023-03-01T17:19:05.345Z,102347.53
2023-03-01T17:21:34.127Z,102354.25
2023-03-01T17:24:02.660Z,102342.06
2023-03-01T17:26:31.122Z,102346.50
2023-03-01T17:28:59.725Z,102351.09
2023-03-01T17:31:28.175Z,102351.38
2023-03-01T17:33:58.863Z,102353.03
2023-03-01T17:36:28.278Z,102360.06
2023-03-01T17:38:56.741Z,102349.97
2023-03-01T17:41:25.165Z,102357.88
2023-03-01T17:43:53.678Z,102352.75
2023-03-01T17:46:22.209Z,102359.59
2023-03-01T17:48:50.583Z,102354.94
2023-03-01T17:51:19.213Z,102368.22
2023-03-01T17:53:47.631Z,102365.34
2023-03-01T17:56:16.255Z,102363.03
2023-03-01T17:58:46.740Z,102360.56
2023-03-01T18:01:18.588Z,102358.38
2023-03-01T18:03:47.801Z,102365.03
2023-03-01T18:06:26.393Z,102358.09
2023-03-01T18:08:55.198Z,102366.00
2023-03-01T18:11:25.654Z,102376.72
2023-03-01T18:13:55.274Z,102374.38
2023-03-01T18:16:24.027Z,102378.00
2023-03-01T18:18:54.126Z,102372.84
2023-03-01T18:21:26.483Z,102374.44
2023-03-01T18:23:55.068Z,102380.75
2023-03-01T18:26:25.122Z,102379.94
2023-03-01T18:28:53.898Z,102377.88
2023-03-01T18:31:22.712Z,102373.59
2023-03-01T18:33:54.738Z,102374.56
2023-03-01T18:36:26.140Z,102371.91
2023-03-01T18:38:56.405Z,102360.69
2023-03-01T18:41:27.249Z,102373.19
2023-03-01T18:43:57.025Z,102354.72
2023-03-01T18:46:26.064Z,102350.63
2023-03-01T18:48:55.123Z,102343.81
2023-03-01T18:51:26.841Z,102352.13
2023-03-01T18:53:58.954Z,102346.13
2023-03-01T18:56:32.055Z,102335.25
2023-03-01T18:59:02.354Z,102338.03
2023-03-01T19:01:36.170Z,102346.81
2023-03-01T19:04:06.001Z,102337.59
2023-03-01T19:06:35.370Z,102345.50
2023-03-01T19:09:05.494Z,102329.91
2023-03-01T19:11:35.592Z,102345.50
2023-03-01T19:14:04.587Z,102337.81
2023-03-01T19:16:34.475Z,102340.16
2023-03-01T19:19:05.310Z,102333.59
2023-03-01T19:21:34.226Z,102349.09
2023-03-01T19:24:03.117Z,102348.50
2023-03-01T19:26:32.830Z,102348.47
2023-03-01T19:29:03.467Z,102353.59
2023-03-01T19:31:32.212Z,102362.88
2023-03-01T19:34:10.980Z,102360.16
2023-03-01T19:36:42.744Z,102356.28
2023-03-01T19:39:13.503Z,102349.28
2023-03-01T19:41:43.176Z,102345.59
2023-03-01T19:44:12.289Z,102348.06
2023-03-01T19:46:41.770Z,102345.38
2023-03-01T19:49:10.352Z,102343.78
2023-03-01T19:51:39.370Z,102337.16
2023-03-01T19:54:09.806Z,102346.13
2023-03-01T19:56:38.774Z,102358.63
2023-03-01T19:59:07.717Z,102349.19
2023-03-01T20:01:37.645Z,102344.94
2023-03-01T20:04:06.519Z,102349.47
2023-03-01T20:06:35.687Z,102343.47
2023-03-01T20:09:19.050Z,102350.97
2023-03-01T20:11:49.985Z,102357.13
2023-03-01T20:14:21.087Z,102348.50
2023-03-01T20:16:52.814Z,102349.59
2023-03-01T20:19:21.625Z,102344.91
2023-03-01T20:21:50.356Z,102344.91
2023-03-01T20:24:18.807Z,102344.81
2023-03-01T20:26:47.418Z,102341.59
2023-03-01T20:29:16.026Z,102338.22
2023-03-01T20:31:44.605Z,102340.03
2023-03-01T20:34:13.298Z,102341.34
2023-03-01T20:36:43.862Z,102345.09
2023-03-01T20:39:12.348Z,102345.69
2023-03-01T20:41:40.946Z,102340.38
2023-03-01T20:44:09.865Z,102333.97
2023-03-01T20:46:38.893Z,102339.91
2023-03-01T20:49:07.406Z,102336.69
2023-03-01T20:51:35.975Z,102333.00
2023-03-01T20:54:05.151Z,102332.16
2023-03-01T20:56:34.329Z,102331.97
2023-03-01T20:59:10.488Z,102334.84
2023-03-01T21:01:39.792Z,102326.28
2023-03-01T21:04:09.213Z,102323.84
2023-03-01T21:06:38.831Z,102321.91
2023-03-01T21:09:07.245Z,102322.22
2023-03-01T21:11:36.069Z,102327.25
2023-03-01T21:14:07.488Z,102323.34
2023-03-01T21:16:36.487Z,102319.28
2023-03-01T21:19:05.140Z,102321.00
2023-03-01T21:21:33.726Z,102315.63
2023-03-01T21:24:02.553Z,102311.03
2023-03-01T21:26:31.140Z,102312.88
2023-03-01T21:29:01.519Z,102311.38
2023-03-01T21:31:35.290Z,102306.44
2023-03-01T21:34:06.192Z,102308.06
2023-03-01T21:36:35.942Z,102297.88
2023-03-01T21:39:06.177Z,102288.00
2023-03-01T21:41:37.050Z,102293.13
2023-03-01T21:44:07.272Z,102289.50
2023-03-01T21:46:38.730Z,102286.19
2023-03-01T21:49:09.785Z,102296.72
2023-03-01T21:51:38.388Z,102294.94
2023-03-01T21:54:07.351Z,102286.78
2023-03-01T21:56:39.297Z,102293.13
2023-03-01T21:59:12.873Z,102298.72
2023-03-01T22:01:41.567Z,102297.38
2023-03-01T22:04:10.864Z,102291.41
2023-03-01T22:06:42.818Z,102290.94
2023-03-01T22:09:17.488Z,102292.38
2023-03-01T22:12:02.437Z,102300.81
2023-03-01T22:14:32.288Z,102294.50
2023-03-01T22:17:00.871Z,102300.75
2023-03-01T22:19:30.257Z,102302.03
2023-03-01T22:21:58.678Z,102297.97
2023-03-01T22:24:27.250Z,102308.72
2023-03-01T22:26:55.860Z,102303.78
2023-03-01T22:29:29.099Z,102300.47
2023-03-01T22:31:58.285Z,102305.00
2023-03-01T22:34:27.386Z,102318.88
2023-03-01T22:36:56.556Z,102310.09
2023-03-01T22:39:25.030Z,102315.81
2023-03-01T22:41:54.031Z,102312.69
2023-03-01T22:44:23.539Z,102309.84
2023-03-01T22:46:52.835Z,102322.47
2023-03-01T22:49:21.552Z,102323.72
2023-03-01T22:51:51.457Z,102321.59
2023-03-01T22:54:20.532Z,102323.69
2023-03-01T22:56:49.586Z,102326.31
2023-03-01T22:59:22.503Z,102323.69
2023-03-01T23:01:52.374Z,102318.56
2023-03-01T23:04:22.376Z,102319.81
2023-03-01T23:06:53.587Z,102315.16
2023-03-01T23:09:22.088Z,102312.06
2023-03-01T23:11:51.334Z,102310.34
2023-03-01T23:14:21.184Z,102303.81
2023-03-01T23:16:49.982Z,102303.22
2023-03-01T23:19:18.965Z,102303.22
2023-03-01T23:21:50.245Z,102300.34
2023-03-01T23:24:21.385Z,102300.25
2023-03-01T23:26:55.884Z,102302.88
2023-03-01T23:29:24.297Z,102293.72
2023-03-01T23:31:57.375Z,102293.72
2023-03-01T23:34:26.748Z,102305.41
2023-03-01T23:36:55.744Z,102298.75
2023-03-01T23:39:24.222Z,102292.25
2023-03-01T23:41:52.690Z,102288.66
2023-03-01T23:44:21.448Z,102285.81
2023-03-01T23:46:50.661Z,102288.16
2023-03-01T23:49:22.312Z,102279.44
2023-03-01T23:51:51.395Z,102285.91
2023-03-01T23:54:22.683Z,102279.00
2023-03-01T23:56:51.241Z,102279.88
2023-03-01T23:59:22.348Z,102273.84
